sensor_id;sensor_type;location;lat;lon;timestamp;P1;durP1;ratioP1;P2;durP2;ratioP2
37355;SDS011;48747;50.250;18.848;2023-05-20T00:01:33;35.17;;;22.52;;
37355;SDS011;48747;50.250;18.848;2023-05-20T00:03:36;36.77;;;23.45;;
37355;SDS011;48747;50.250;18.848;2023-05-20T00:05:39;40.05;;;25.62;;
37355;SDS011;48747;50.250;18.848;2023-05-20T00:07:48;40.25;;;23.80;;
37355;SDS011;48747;50.250;18.848;2023-05-20T00:09:47;38.23;;;23.75;;
37355;SDS011;48747;50.250;18.848;2023-05-20T00:11:50;35.08;;;22.13;;
37355;SDS011;48747;50.250;18.848;2023-05-20T00:13:53;37.10;;;22.77;;
37355;SDS011;48747;50.250;18.848;2023-05-20T00:15:57;40.65;;;24.98;;
37355;SDS011;48747;50.250;18.848;2023-05-20T00:18:00;36.03;;;22.98;;
37355;SDS011;48747;50.250;18.848;2023-05-20T00:20:04;38.08;;;22.00;;
37355;SDS011;48747;50.250;18.848;2023-05-20T00:22:08;38.88;;;23.38;;
37355;SDS011;48747;50.250;18.848;2023-05-20T00:24:11;35.05;;;23.30;;
37355;SDS011;48747;50.250;18.848;2023-05-20T00:26:15;38.28;;;23.40;;
37355;SDS011;48747;50.250;18.848;2023-05-20T00:28:18;39.35;;;25.00;;
37355;SDS011;48747;50.250;18.848;2023-05-20T00:30:23;42.40;;;25.43;;
37355;SDS011;48747;50.250;18.848;2023-05-20T00:32:26;42.13;;;23.95;;
37355;SDS011;48747;50.250;18.848;2023-05-20T00:34:31;42.35;;;26.42;;
37355;SDS011;48747;50.250;18.848;2023-05-20T00:36:34;40.25;;;24.25;;
37355;SDS011;48747;50.250;18.848;2023-05-20T00:38:43;35.90;;;23.35;;
37355;SDS011;48747;50.250;18.848;2023-05-20T00:40:44;39.38;;;24.23;;
37355;SDS011;48747;50.250;18.848;2023-05-20T00:42:47;35.15;;;22.17;;
37355;SDS011;48747;50.250;18.848;2023-05-20T00:44:50;37.08;;;22.00;;
37355;SDS011;48747;50.250;18.848;2023-05-20T00:46:53;38.25;;;22.85;;
37355;SDS011;48747;50.250;18.848;2023-05-20T00:48:57;39.08;;;22.90;;
37355;SDS011;48747;50.250;18.848;2023-05-20T00:51:00;38.98;;;23.62;;
37355;SDS011;48747;50.250;18.848;2023-05-20T00:53:05;37.08;;;23.60;;
37355;SDS011;48747;50.250;18.848;2023-05-20T00:55:09;40.43;;;24.07;;
37355;SDS011;48747;50.250;18.848;2023-05-20T00:57:12;40.58;;;24.67;;
37355;SDS011;48747;50.250;18.848;2023-05-20T00:59:16;41.18;;;25.40;;
37355;SDS011;48747;50.250;18.848;2023-05-20T01:01:19;37.13;;;21.70;;
37355;SDS011;48747;50.250;18.848;2023-05-20T01:03:22;36.20;;;23.05;;
37355;SDS011;48747;50.250;18.848;2023-05-20T01:05:27;39.98;;;24.75;;
37355;SDS011;48747;50.250;18.848;2023-05-20T01:07:30;37.80;;;23.77;;
37355;SDS011;48747;50.250;18.848;2023-05-20T01:09:39;36.93;;;22.70;;
37355;SDS011;48747;50.250;18.848;2023-05-20T01:11:41;40.30;;;25.23;;
37355;SDS011;48747;50.250;18.848;2023-05-20T01:13:46;42.98;;;26.25;;
37355;SDS011;48747;50.250;18.848;2023-05-20T01:15:50;42.65;;;24.50;;
37355;SDS011;48747;50.250;18.848;2023-05-20T01:17:57;41.68;;;25.15;;
37355;SDS011;48747;50.250;18.848;2023-05-20T01:20:03;37.17;;;23.42;;
37355;SDS011;48747;50.250;18.848;2023-05-20T01:22:09;36.55;;;23.47;;
37355;SDS011;48747;50.250;18.848;2023-05-20T01:24:14;45.17;;;26.82;;
37355;SDS011;48747;50.250;18.848;2023-05-20T01:26:17;45.43;;;25.88;;
37355;SDS011;48747;50.250;18.848;2023-05-20T01:28:22;41.75;;;25.32;;
37355;SDS011;48747;50.250;18.848;2023-05-20T01:30:25;40.45;;;24.80;;
37355;SDS011;48747;50.250;18.848;2023-05-20T01:32:31;36.03;;;23.70;;
37355;SDS011;48747;50.250;18.848;2023-05-20T01:34:37;45.00;;;25.05;;
37355;SDS011;48747;50.250;18.848;2023-05-20T01:36:42;45.03;;;26.07;;
37355;SDS011;48747;50.250;18.848;2023-05-20T01:38:47;37.90;;;22.98;;
37355;SDS011;48747;50.250;18.848;2023-05-20T01:40:52;40.10;;;24.25;;
37355;SDS011;48747;50.250;18.848;2023-05-20T01:42:56;37.58;;;22.90;;
37355;SDS011;48747;50.250;18.848;2023-05-20T01:45:00;40.00;;;24.57;;
37355;SDS011;48747;50.250;18.848;2023-05-20T01:47:04;33.83;;;21.93;;
37355;SDS011;48747;50.250;18.848;2023-05-20T01:49:07;37.88;;;24.30;;
37355;SDS011;48747;50.250;18.848;2023-05-20T01:51:10;38.42;;;23.05;;
37355;SDS011;48747;50.250;18.848;2023-05-20T01:53:13;37.78;;;23.42;;
37355;SDS011;48747;50.250;18.848;2023-05-20T01:55:16;37.23;;;23.20;;
37355;SDS011;48747;50.250;18.848;2023-05-20T01:57:21;41.88;;;26.42;;
37355;SDS011;48747;50.250;18.848;2023-05-20T01:59:24;38.00;;;24.25;;
37355;SDS011;48747;50.250;18.848;2023-05-20T02:01:29;33.85;;;21.73;;
37355;SDS011;48747;50.250;18.848;2023-05-20T02:03:38;44.10;;;26.35;;
37355;SDS011;48747;50.250;18.848;2023-05-20T02:05:37;42.08;;;25.65;;
37355;SDS011;48747;50.250;18.848;2023-05-20T02:07:42;38.95;;;23.30;;
37355;SDS011;48747;50.250;18.848;2023-05-20T02:09:45;40.92;;;25.30;;
37355;SDS011;48747;50.250;18.848;2023-05-20T02:11:48;37.95;;;24.52;;
37355;SDS011;48747;50.250;18.848;2023-05-20T02:13:51;38.67;;;22.90;;
37355;SDS011;48747;50.250;18.848;2023-05-20T02:15:55;39.70;;;24.50;;
37355;SDS011;48747;50.250;18.848;2023-05-20T02:17:58;41.18;;;24.05;;
37355;SDS011;48747;50.250;18.848;2023-05-20T02:20:02;39.83;;;24.02;;
37355;SDS011;48747;50.250;18.848;2023-05-20T02:22:06;37.20;;;22.82;;
37355;SDS011;48747;50.250;18.848;2023-05-20T02:24:10;40.23;;;25.23;;
37355;SDS011;48747;50.250;18.848;2023-05-20T02:26:13;39.42;;;25.85;;
37355;SDS011;48747;50.250;18.848;2023-05-20T02:28:16;36.35;;;24.50;;
37355;SDS011;48747;50.250;18.848;2023-05-20T02:30:19;44.50;;;26.55;;
37355;SDS011;48747;50.250;18.848;2023-05-20T02:32:22;42.85;;;26.73;;
37355;SDS011;48747;50.250;18.848;2023-05-20T02:34:27;37.85;;;24.63;;
37355;SDS011;48747;50.250;18.848;2023-05-20T02:36:31;45.17;;;26.02;;
37355;SDS011;48747;50.250;18.848;2023-05-20T02:38:34;39.53;;;23.57;;
37355;SDS011;48747;50.250;18.848;2023-05-20T02:40:38;40.95;;;25.05;;
37355;SDS011;48747;50.250;18.848;2023-05-20T02:42:43;44.55;;;27.95;;
37355;SDS011;48747;50.250;18.848;2023-05-20T02:44:46;41.77;;;26.35;;
37355;SDS011;48747;50.250;18.848;2023-05-20T02:46:50;41.30;;;24.55;;
37355;SDS011;48747;50.250;18.848;2023-05-20T02:48:53;42.53;;;26.40;;
37355;SDS011;48747;50.250;18.848;2023-05-20T02:50:58;42.20;;;24.90;;
37355;SDS011;48747;50.250;18.848;2023-05-20T02:53:01;46.08;;;26.90;;
37355;SDS011;48747;50.250;18.848;2023-05-20T02:55:04;41.00;;;25.25;;
37355;SDS011;48747;50.250;18.848;2023-05-20T02:57:07;45.83;;;26.27;;
37355;SDS011;48747;50.250;18.848;2023-05-20T02:59:11;44.88;;;24.70;;
37355;SDS011;48747;50.250;18.848;2023-05-20T03:01:14;41.50;;;25.48;;
37355;SDS011;48747;50.250;18.848;2023-05-20T03:03:17;41.35;;;23.52;;
37355;SDS011;48747;50.250;18.848;2023-05-20T03:05:20;44.18;;;25.00;;
37355;SDS011;48747;50.250;18.848;2023-05-20T03:07:24;35.88;;;22.42;;
37355;SDS011;48747;50.250;18.848;2023-05-20T03:09:27;39.18;;;23.22;;
37355;SDS011;48747;50.250;18.848;2023-05-20T03:11:30;39.23;;;22.98;;
37355;SDS011;48747;50.250;18.848;2023-05-20T03:13:33;35.95;;;21.50;;
37355;SDS011;48747;50.250;18.848;2023-05-20T03:15:53;30.08;;;19.30;;
37355;SDS011;48747;50.250;18.848;2023-05-20T03:17:43;34.53;;;20.70;;
37355;SDS011;48747;50.250;18.848;2023-05-20T03:19:46;31.05;;;18.95;;
37355;SDS011;48747;50.250;18.848;2023-05-20T03:21:54;36.93;;;20.60;;
37355;SDS011;48747;50.250;18.848;2023-05-20T03:23:54;30.55;;;18.65;;
37355;SDS011;48747;50.250;18.848;2023-05-20T03:25:57;31.68;;;19.62;;
37355;SDS011;48747;50.250;18.848;2023-05-20T03:28:02;28.62;;;17.15;;
37355;SDS011;48747;50.250;18.848;2023-05-20T03:30:06;28.50;;;17.70;;
37355;SDS011;48747;50.250;18.848;2023-05-20T03:32:09;26.65;;;17.00;;
37355;SDS011;48747;50.250;18.848;2023-05-20T03:34:13;29.90;;;17.87;;
37355;SDS011;48747;50.250;18.848;2023-05-20T03:36:16;28.70;;;17.35;;
37355;SDS011;48747;50.250;18.848;2023-05-20T03:38:19;23.73;;;15.60;;
37355;SDS011;48747;50.250;18.848;2023-05-20T03:40:22;28.77;;;17.65;;
37355;SDS011;48747;50.250;18.848;2023-05-20T03:42:26;24.37;;;15.55;;
37355;SDS011;48747;50.250;18.848;2023-05-20T03:44:29;26.65;;;16.17;;
37355;SDS011;48747;50.250;18.848;2023-05-20T03:46:32;26.48;;;16.35;;
37355;SDS011;48747;50.250;18.848;2023-05-20T03:48:38;25.97;;;16.35;;
37355;SDS011;48747;50.250;18.848;2023-05-20T03:50:41;29.63;;;16.48;;
37355;SDS011;48747;50.250;18.848;2023-05-20T03:52:44;25.65;;;16.15;;
37355;SDS011;48747;50.250;18.848;2023-05-20T03:54:47;29.37;;;17.40;;
37355;SDS011;48747;50.250;18.848;2023-05-20T03:56:50;28.25;;;18.77;;
37355;SDS011;48747;50.250;18.848;2023-05-20T03:58:55;29.72;;;18.17;;
37355;SDS011;48747;50.250;18.848;2023-05-20T04:00:58;27.30;;;17.67;;
37355;SDS011;48747;50.250;18.848;2023-05-20T04:03:01;28.80;;;18.42;;
37355;SDS011;48747;50.250;18.848;2023-05-20T04:05:04;27.13;;;15.43;;
37355;SDS011;48747;50.250;18.848;2023-05-20T04:07:10;27.22;;;17.50;;
37355;SDS011;48747;50.250;18.848;2023-05-20T04:09:13;25.85;;;16.27;;
37355;SDS011;48747;50.250;18.848;2023-05-20T04:11:16;23.42;;;15.83;;
37355;SDS011;48747;50.250;18.848;2023-05-20T04:13:19;21.20;;;14.53;;
37355;SDS011;48747;50.250;18.848;2023-05-20T04:15:22;27.37;;;17.77;;
37355;SDS011;48747;50.250;18.848;2023-05-20T04:17:42;19.95;;;13.48;;
37355;SDS011;48747;50.250;18.848;2023-05-20T04:19:33;20.68;;;14.45;;
37355;SDS011;48747;50.250;18.848;2023-05-20T04:21:38;24.70;;;13.70;;
37355;SDS011;48747;50.250;18.848;2023-05-20T04:23:43;22.27;;;14.25;;
37355;SDS011;48747;50.250;18.848;2023-05-20T04:25:46;18.37;;;12.40;;
37355;SDS011;48747;50.250;18.848;2023-05-20T04:27:49;20.35;;;13.38;;
37355;SDS011;48747;50.250;18.848;2023-05-20T04:29:55;18.62;;;11.35;;
37355;SDS011;48747;50.250;18.848;2023-05-20T04:31:59;18.50;;;12.33;;
37355;SDS011;48747;50.250;18.848;2023-05-20T04:34:02;20.62;;;12.37;;
37355;SDS011;48747;50.250;18.848;2023-05-20T04:36:08;19.27;;;12.65;;
37355;SDS011;48747;50.250;18.848;2023-05-20T04:38:16;19.00;;;11.63;;
37355;SDS011;48747;50.250;18.848;2023-05-20T04:40:19;22.60;;;12.80;;
37355;SDS011;48747;50.250;18.848;2023-05-20T04:42:23;17.10;;;12.50;;
37355;SDS011;48747;50.250;18.848;2023-05-20T04:44:26;17.55;;;11.93;;
37355;SDS011;48747;50.250;18.848;2023-05-20T04:46:30;20.00;;;12.43;;
37355;SDS011;48747;50.250;18.848;2023-05-20T04:48:34;19.07;;;12.13;;
37355;SDS011;48747;50.250;18.848;2023-05-20T04:50:37;19.95;;;13.18;;
37355;SDS011;48747;50.250;18.848;2023-05-20T04:52:42;17.85;;;12.35;;
37355;SDS011;48747;50.250;18.848;2023-05-20T04:54:46;18.62;;;12.93;;
37355;SDS011;48747;50.250;18.848;2023-05-20T04:56:50;17.73;;;12.43;;
37355;SDS011;48747;50.250;18.848;2023-05-20T04:58:56;16.00;;;11.50;;
37355;SDS011;48747;50.250;18.848;2023-05-20T05:00:59;17.32;;;12.50;;
37355;SDS011;48747;50.250;18.848;2023-05-20T05:03:02;16.50;;;11.60;;
37355;SDS011;48747;50.250;18.848;2023-05-20T05:05:07;17.42;;;12.80;;
37355;SDS011;48747;50.250;18.848;2023-05-20T05:07:10;15.45;;;11.30;;
37355;SDS011;48747;50.250;18.848;2023-05-20T05:09:14;16.32;;;11.30;;
37355;SDS011;48747;50.250;18.848;2023-05-20T05:11:17;15.45;;;10.75;;
37355;SDS011;48747;50.250;18.848;2023-05-20T05:13:21;21.40;;;11.88;;
37355;SDS011;48747;50.250;18.848;2023-05-20T05:15:24;17.55;;;11.63;;
37355;SDS011;48747;50.250;18.848;2023-05-20T05:17:29;21.00;;;12.85;;
37355;SDS011;48747;50.250;18.848;2023-05-20T05:19:32;17.73;;;11.97;;
37355;SDS011;48747;50.250;18.848;2023-05-20T05:21:41;18.30;;;12.53;;
37355;SDS011;48747;50.250;18.848;2023-05-20T05:23:43;17.65;;;13.00;;
37355;SDS011;48747;50.250;18.848;2023-05-20T05:25:49;22.55;;;15.18;;
37355;SDS011;48747;50.250;18.848;2023-05-20T05:27:53;24.65;;;16.97;;
37355;SDS011;48747;50.250;18.848;2023-05-20T05:29:57;19.77;;;13.40;;
37355;SDS011;48747;50.250;18.848;2023-05-20T05:32:00;22.55;;;14.20;;
37355;SDS011;48747;50.250;18.848;2023-05-20T05:34:09;17.82;;;12.55;;
37355;SDS011;48747;50.250;18.848;2023-05-20T05:36:12;21.10;;;13.93;;
37355;SDS011;48747;50.250;18.848;2023-05-20T05:38:15;19.10;;;12.35;;
37355;SDS011;48747;50.250;18.848;2023-05-20T05:40:21;19.60;;;13.03;;
37355;SDS011;48747;50.250;18.848;2023-05-20T05:42:26;17.70;;;11.95;;
37355;SDS011;48747;50.250;18.848;2023-05-20T05:44:31;20.20;;;12.40;;
37355;SDS011;48747;50.250;18.848;2023-05-20T05:46:35;18.67;;;12.47;;
37355;SDS011;48747;50.250;18.848;2023-05-20T05:48:42;20.32;;;12.20;;
37355;SDS011;48747;50.250;18.848;2023-05-20T05:50:48;18.12;;;11.73;;
37355;SDS011;48747;50.250;18.848;2023-05-20T05:52:53;17.02;;;12.50;;
37355;SDS011;48747;50.250;18.848;2023-05-20T05:54:56;18.07;;;12.05;;
37355;SDS011;48747;50.250;18.848;2023-05-20T05:56:59;16.73;;;11.73;;
37355;SDS011;48747;50.250;18.848;2023-05-20T05:59:02;17.05;;;11.20;;
37355;SDS011;48747;50.250;18.848;2023-05-20T06:01:06;16.05;;;10.60;;
37355;SDS011;48747;50.250;18.848;2023-05-20T06:03:12;15.83;;;11.35;;
37355;SDS011;48747;50.250;18.848;2023-05-20T06:05:22;17.07;;;10.95;;
37355;SDS011;48747;50.250;18.848;2023-05-20T06:07:27;15.88;;;11.60;;
37355;SDS011;48747;50.250;18.848;2023-05-20T06:09:30;19.12;;;13.13;;
37355;SDS011;48747;50.250;18.848;2023-05-20T06:11:35;17.62;;;12.15;;
37355;SDS011;48747;50.250;18.848;2023-05-20T06:13:38;17.42;;;11.68;;
37355;SDS011;48747;50.250;18.848;2023-05-20T06:15:43;15.70;;;10.82;;
37355;SDS011;48747;50.250;18.848;2023-05-20T06:17:47;15.13;;;10.68;;
37355;SDS011;48747;50.250;18.848;2023-05-20T06:22:38;16.95;;;11.95;;
37355;SDS011;48747;50.250;18.848;2023-05-20T06:24:41;17.60;;;11.33;;
37355;SDS011;48747;50.250;18.848;2023-05-20T06:26:44;18.25;;;11.93;;
37355;SDS011;48747;50.250;18.848;2023-05-20T06:28:51;15.93;;;11.75;;
37355;SDS011;48747;50.250;18.848;2023-05-20T06:30:54;14.87;;;11.93;;
37355;SDS011;48747;50.250;18.848;2023-05-20T06:32:58;16.30;;;12.18;;
37355;SDS011;48747;50.250;18.848;2023-05-20T06:35:01;16.73;;;12.80;;
37355;SDS011;48747;50.250;18.848;2023-05-20T06:37:04;25.68;;;14.85;;
37355;SDS011;48747;50.250;18.848;2023-05-20T06:39:07;18.75;;;12.28;;
37355;SDS011;48747;50.250;18.848;2023-05-20T06:41:12;15.78;;;12.05;;
37355;SDS011;48747;50.250;18.848;2023-05-20T06:43:15;14.85;;;11.57;;
37355;SDS011;48747;50.250;18.848;2023-05-20T06:45:19;16.37;;;10.63;;
37355;SDS011;48747;50.250;18.848;2023-05-20T06:47:27;16.25;;;10.90;;
37355;SDS011;48747;50.250;18.848;2023-05-20T06:49:26;13.75;;;10.68;;
37355;SDS011;48747;50.250;18.848;2023-05-20T06:51:37;14.45;;;10.58;;
37355;SDS011;48747;50.250;18.848;2023-05-20T06:53:37;16.07;;;11.20;;
37355;SDS011;48747;50.250;18.848;2023-05-20T06:55:40;15.83;;;10.30;;
37355;SDS011;48747;50.250;18.848;2023-05-20T06:57:45;13.68;;;10.58;;
37355;SDS011;48747;50.250;18.848;2023-05-20T06:59:48;13.05;;;9.60;;
37355;SDS011;48747;50.250;18.848;2023-05-20T07:01:51;13.35;;;9.70;;
37355;SDS011;48747;50.250;18.848;2023-05-20T07:03:56;14.60;;;10.75;;
37355;SDS011;48747;50.250;18.848;2023-05-20T07:06:04;15.70;;;11.08;;
37355;SDS011;48747;50.250;18.848;2023-05-20T07:08:08;13.90;;;10.08;;
37355;SDS011;48747;50.250;18.848;2023-05-20T07:10:11;17.10;;;11.40;;
37355;SDS011;48747;50.250;18.848;2023-05-20T07:12:18;16.25;;;11.33;;
37355;SDS011;48747;50.250;18.848;2023-05-20T07:14:24;18.07;;;12.15;;
37355;SDS011;48747;50.250;18.848;2023-05-20T07:16:29;19.12;;;10.82;;
37355;SDS011;48747;50.250;18.848;2023-05-20T07:18:37;15.28;;;11.57;;
37355;SDS011;48747;50.250;18.848;2023-05-20T07:20:40;17.75;;;11.25;;
37355;SDS011;48747;50.250;18.848;2023-05-20T07:22:43;20.17;;;11.25;;
37355;SDS011;48747;50.250;18.848;2023-05-20T07:24:49;14.55;;;11.03;;
37355;SDS011;48747;50.250;18.848;2023-05-20T07:26:52;16.25;;;10.38;;
37355;SDS011;48747;50.250;18.848;2023-05-20T07:28:56;15.20;;;11.45;;
37355;SDS011;48747;50.250;18.848;2023-05-20T07:31:03;17.45;;;12.25;;
37355;SDS011;48747;50.250;18.848;2023-05-20T07:33:09;19.05;;;12.15;;
37355;SDS011;48747;50.250;18.848;2023-05-20T07:35:12;17.55;;;12.07;;
37355;SDS011;48747;50.250;18.848;2023-05-20T07:37:19;19.32;;;11.63;;
37355;SDS011;48747;50.250;18.848;2023-05-20T07:39:25;16.70;;;11.65;;
37355;SDS011;48747;50.250;18.848;2023-05-20T07:41:28;14.85;;;11.70;;
37355;SDS011;48747;50.250;18.848;2023-05-20T07:43:31;16.42;;;10.60;;
37355;SDS011;48747;50.250;18.848;2023-05-20T07:45:41;15.85;;;12.37;;
37355;SDS011;48747;50.250;18.848;2023-05-20T07:47:43;16.45;;;12.73;;
37355;SDS011;48747;50.250;18.848;2023-05-20T07:49:48;18.90;;;11.83;;
37355;SDS011;48747;50.250;18.848;2023-05-20T07:51:53;15.48;;;10.70;;
37355;SDS011;48747;50.250;18.848;2023-05-20T07:53:56;17.35;;;10.93;;
37355;SDS011;48747;50.250;18.848;2023-05-20T07:56:00;18.77;;;11.68;;
37355;SDS011;48747;50.250;18.848;2023-05-20T07:58:03;16.50;;;11.95;;
37355;SDS011;48747;50.250;18.848;2023-05-20T08:00:08;18.55;;;11.80;;
37355;SDS011;48747;50.250;18.848;2023-05-20T08:02:12;17.67;;;13.10;;
37355;SDS011;48747;50.250;18.848;2023-05-20T08:04:16;17.92;;;12.28;;
37355;SDS011;48747;50.250;18.848;2023-05-20T08:06:21;17.40;;;11.93;;
37355;SDS011;48747;50.250;18.848;2023-05-20T08:08:28;16.00;;;11.57;;
37355;SDS011;48747;50.250;18.848;2023-05-20T08:10:31;17.35;;;12.45;;
37355;SDS011;48747;50.250;18.848;2023-05-20T08:12:34;17.82;;;12.50;;
37355;SDS011;48747;50.250;18.848;2023-05-20T08:14:38;16.70;;;12.05;;
37355;SDS011;48747;50.250;18.848;2023-05-20T08:16:43;16.90;;;11.63;;
37355;SDS011;48747;50.250;18.848;2023-05-20T08:18:47;16.12;;;11.97;;
37355;SDS011;48747;50.250;18.848;2023-05-20T08:20:50;17.57;;;12.00;;
37355;SDS011;48747;50.250;18.848;2023-05-20T08:22:53;16.87;;;11.93;;
37355;SDS011;48747;50.250;18.848;2023-05-20T08:24:58;15.88;;;10.90;;
37355;SDS011;48747;50.250;18.848;2023-05-20T08:27:01;19.65;;;11.63;;
37355;SDS011;48747;50.250;18.848;2023-05-20T08:29:09;16.82;;;10.98;;
37355;SDS011;48747;50.250;18.848;2023-05-20T08:31:27;17.60;;;12.10;;
37355;SDS011;48747;50.250;18.848;2023-05-20T08:33:27;14.60;;;11.22;;
37355;SDS011;48747;50.250;18.848;2023-05-20T08:35:31;17.17;;;11.50;;
37355;SDS011;48747;50.250;18.848;2023-05-20T08:37:36;16.15;;;11.48;;
37355;SDS011;48747;50.250;18.848;2023-05-20T08:39:43;22.67;;;12.73;;
37355;SDS011;48747;50.250;18.848;2023-05-20T08:41:47;18.40;;;12.58;;
37355;SDS011;48747;50.250;18.848;2023-05-20T08:43:50;18.02;;;12.75;;
37355;SDS011;48747;50.250;18.848;2023-05-20T08:45:54;23.42;;;13.85;;
37355;SDS011;48747;50.250;18.848;2023-05-20T08:47:57;19.52;;;12.98;;
37355;SDS011;48747;50.250;18.848;2023-05-20T08:50:01;17.30;;;12.95;;
37355;SDS011;48747;50.250;18.848;2023-05-20T08:52:04;15.32;;;12.15;;
37355;SDS011;48747;50.250;18.848;2023-05-20T08:54:09;41.10;;;13.13;;
37355;SDS011;48747;50.250;18.848;2023-05-20T08:56:13;17.00;;;12.73;;
37355;SDS011;48747;50.250;18.848;2023-05-20T08:58:21;16.07;;;10.95;;
37355;SDS011;48747;50.250;18.848;2023-05-20T09:00:26;18.00;;;11.95;;
37355;SDS011;48747;50.250;18.848;2023-05-20T09:02:32;17.80;;;11.73;;
37355;SDS011;48747;50.250;18.848;2023-05-20T09:04:45;16.85;;;12.13;;
37355;SDS011;48747;50.250;18.848;2023-05-20T09:06:45;18.92;;;13.32;;
37355;SDS011;48747;50.250;18.848;2023-05-20T09:08:52;20.95;;;13.80;;
37355;SDS011;48747;50.250;18.848;2023-05-20T09:10:57;21.40;;;14.78;;
37355;SDS011;48747;50.250;18.848;2023-05-20T09:12:59;22.32;;;14.50;;
37355;SDS011;48747;50.250;18.848;2023-05-20T09:15:10;24.82;;;15.48;;
37355;SDS011;48747;50.250;18.848;2023-05-20T09:17:09;22.70;;;13.38;;
37355;SDS011;48747;50.250;18.848;2023-05-20T09:19:13;32.05;;;14.50;;
37355;SDS011;48747;50.250;18.848;2023-05-20T09:21:18;21.10;;;13.68;;
37355;SDS011;48747;50.250;18.848;2023-05-20T09:23:24;22.22;;;14.85;;
37355;SDS011;48747;50.250;18.848;2023-05-20T09:25:28;18.10;;;13.90;;
37355;SDS011;48747;50.250;18.848;2023-05-20T09:27:45;22.07;;;15.38;;
37355;SDS011;48747;50.250;18.848;2023-05-20T09:29:42;21.48;;;15.18;;
37355;SDS011;48747;50.250;18.848;2023-05-20T09:31:50;23.85;;;15.45;;
37355;SDS011;48747;50.250;18.848;2023-05-20T09:33:53;21.45;;;14.95;;
37355;SDS011;48747;50.250;18.848;2023-05-20T09:36:03;20.75;;;13.75;;
37355;SDS011;48747;50.250;18.848;2023-05-20T09:38:10;18.70;;;12.82;;
37355;SDS011;48747;50.250;18.848;2023-05-20T09:40:14;19.45;;;15.05;;
37355;SDS011;48747;50.250;18.848;2023-05-20T09:42:21;21.12;;;15.18;;
37355;SDS011;48747;50.250;18.848;2023-05-20T09:44:35;20.57;;;15.13;;
37355;SDS011;48747;50.250;18.848;2023-05-20T09:48:45;21.15;;;13.93;;
37355;SDS011;48747;50.250;18.848;2023-05-20T09:50:59;18.62;;;13.90;;
37355;SDS011;48747;50.250;18.848;2023-05-20T09:53:08;20.85;;;14.25;;
37355;SDS011;48747;50.250;18.848;2023-05-20T09:55:10;20.70;;;14.83;;
37355;SDS011;48747;50.250;18.848;2023-05-20T09:59:28;20.08;;;13.65;;
37355;SDS011;48747;50.250;18.848;2023-05-20T10:10:38;22.58;;;15.75;;
37355;SDS011;48747;50.250;18.848;2023-05-20T10:15:35;20.43;;;16.32;;
37355;SDS011;48747;50.250;18.848;2023-05-20T10:17:57;21.33;;;15.38;;
37355;SDS011;48747;50.250;18.848;2023-05-20T10:22:39;20.43;;;16.23;;
37355;SDS011;48747;50.250;18.848;2023-05-20T10:26:53;21.97;;;14.70;;
37355;SDS011;48747;50.250;18.848;2023-05-20T10:29:00;22.32;;;15.00;;
37355;SDS011;48747;50.250;18.848;2023-05-20T10:31:21;23.32;;;15.00;;
37355;SDS011;48747;50.250;18.848;2023-05-20T10:33:30;20.45;;;14.68;;
37355;SDS011;48747;50.250;18.848;2023-05-20T10:35:36;18.50;;;13.60;;
37355;SDS011;48747;50.250;18.848;2023-05-20T10:37:42;21.17;;;15.32;;
37355;SDS011;48747;50.250;18.848;2023-05-20T10:39:51;19.05;;;13.90;;
37355;SDS011;48747;50.250;18.848;2023-05-20T10:41:50;21.33;;;15.00;;
37355;SDS011;48747;50.250;18.848;2023-05-20T10:44:00;20.65;;;15.10;;
37355;SDS011;48747;50.250;18.848;2023-05-20T10:46:04;22.77;;;15.37;;
37355;SDS011;48747;50.250;18.848;2023-05-20T10:48:07;19.27;;;15.05;;
37355;SDS011;48747;50.250;18.848;2023-05-20T10:52:36;20.97;;;14.68;;
37355;SDS011;48747;50.250;18.848;2023-05-20T10:54:46;18.92;;;14.23;;
37355;SDS011;48747;50.250;18.848;2023-05-20T10:56:57;20.10;;;14.68;;
37355;SDS011;48747;50.250;18.848;2023-05-20T10:59:03;21.33;;;15.40;;
37355;SDS011;48747;50.250;18.848;2023-05-20T11:01:07;22.22;;;15.40;;
37355;SDS011;48747;50.250;18.848;2023-05-20T11:03:12;28.83;;;16.20;;
37355;SDS011;48747;50.250;18.848;2023-05-20T11:05:16;21.27;;;14.23;;
37355;SDS011;48747;50.250;18.848;2023-05-20T11:07:23;19.52;;;14.25;;
37355;SDS011;48747;50.250;18.848;2023-05-20T11:09:29;17.02;;;13.83;;
37355;SDS011;48747;50.250;18.848;2023-05-20T11:11:32;18.25;;;14.35;;
37355;SDS011;48747;50.250;18.848;2023-05-20T11:13:38;19.27;;;14.40;;
37355;SDS011;48747;50.250;18.848;2023-05-20T11:15:40;19.05;;;14.80;;
37355;SDS011;48747;50.250;18.848;2023-05-20T11:19:55;23.55;;;15.85;;
37355;SDS011;48747;50.250;18.848;2023-05-20T11:22:00;20.97;;;15.30;;
37355;SDS011;48747;50.250;18.848;2023-05-20T11:24:05;22.20;;;15.43;;
37355;SDS011;48747;50.250;18.848;2023-05-20T11:26:08;19.70;;;13.53;;
37355;SDS011;48747;50.250;18.848;2023-05-20T11:28:12;20.60;;;15.75;;
37355;SDS011;48747;50.250;18.848;2023-05-20T11:30:15;26.87;;;16.77;;
37355;SDS011;48747;50.250;18.848;2023-05-20T11:32:21;20.37;;;15.90;;
37355;SDS011;48747;50.250;18.848;2023-05-20T11:34:31;22.90;;;17.60;;
37355;SDS011;48747;50.250;18.848;2023-05-20T11:36:45;20.88;;;16.10;;
37355;SDS011;48747;50.250;18.848;2023-05-20T11:38:47;22.67;;;16.80;;
37355;SDS011;48747;50.250;18.848;2023-05-20T11:40:54;27.05;;;17.45;;
37355;SDS011;48747;50.250;18.848;2023-05-20T11:42:59;23.42;;;17.55;;
37355;SDS011;48747;50.250;18.848;2023-05-20T11:45:05;26.40;;;17.75;;
37355;SDS011;48747;50.250;18.848;2023-05-20T11:47:11;29.48;;;18.45;;
37355;SDS011;48747;50.250;18.848;2023-05-20T11:49:18;25.97;;;18.60;;
37355;SDS011;48747;50.250;18.848;2023-05-20T11:51:30;27.75;;;18.40;;
37355;SDS011;48747;50.250;18.848;2023-05-20T11:55:45;25.15;;;17.75;;
37355;SDS011;48747;50.250;18.848;2023-05-20T11:57:51;26.45;;;17.90;;
37355;SDS011;48747;50.250;18.848;2023-05-20T11:59:57;24.50;;;17.82;;
37355;SDS011;48747;50.250;18.848;2023-05-20T12:02:00;27.07;;;17.90;;
37355;SDS011;48747;50.250;18.848;2023-05-20T12:04:07;25.27;;;17.60;;
37355;SDS011;48747;50.250;18.848;2023-05-20T12:06:17;26.42;;;18.65;;
37355;SDS011;48747;50.250;18.848;2023-05-20T12:08:23;39.33;;;21.50;;
37355;SDS011;48747;50.250;18.848;2023-05-20T12:10:28;26.05;;;18.75;;
37355;SDS011;48747;50.250;18.848;2023-05-20T12:12:33;31.97;;;18.37;;
37355;SDS011;48747;50.250;18.848;2023-05-20T12:14:37;31.00;;;19.52;;
37355;SDS011;48747;50.250;18.848;2023-05-20T12:16:41;33.00;;;20.35;;
37355;SDS011;48747;50.250;18.848;2023-05-20T12:18:44;43.25;;;21.82;;
37355;SDS011;48747;50.250;18.848;2023-05-20T12:20:49;27.10;;;19.92;;
37355;SDS011;48747;50.250;18.848;2023-05-20T12:22:54;28.95;;;18.92;;
37355;SDS011;48747;50.250;18.848;2023-05-20T12:24:57;26.60;;;18.57;;
37355;SDS011;48747;50.250;18.848;2023-05-20T12:27:01;28.77;;;18.57;;
37355;SDS011;48747;50.250;18.848;2023-05-20T12:29:08;28.57;;;19.32;;